Aviation Digital Data Service (ADDS)

Output produced by METARs form (1237 UTC 19 February 2020)
found at http://aviationweather.gov/metar/data/
 
KCNY 191124Z 1912/2012 00000KT P6SM SCT150 
     FM192100 34005KT P6SM FEW250 
     FM200100 03008KT P6SM FEW250 
     FM200800 VRB04KT P6SM SKC